Time;durP1;ratioP1;P1;durP2;ratioP2;P2;SDS_P1;SDS_P2;PMS_P1;PMS_P2;Temp;Humidity;BMP_temperature;BMP_pressure;BME280_temperature;BME280_humidity;BME280_pressure;Samples;Min_cycle;Max_cycle;Signal;HPM_P1;HPM_P2
2022/04/16 00:00:50;;;;;;;17.93;14.60;;;8.20;99.90;;;;;;5011105;28;20022;-67
2022/04/16 00:03:16;;;;;;;18.40;14.87;;;;;;;;;;5010206;28;20033;-70
2022/04/16 00:05:44;;;;;;;19.00;15.50;;;;;;;;;;5009515;28;20034;-70
2022/04/16 00:08:10;;;;;;;20.40;18.20;;;;;;;;;;5009930;28;20022;-70
2022/04/16 00:10:39;;;;;;;21.77;16.00;;;8.20;99.90;;;;;;5009711;28;20033;-70
2022/04/16 00:13:05;;;;;;;16.83;15.10;;;8.10;99.90;;;;;;5010590;28;20482;-70
2022/04/16 00:15:31;;;;;;;23.10;16.10;;;8.10;99.90;;;;;;5009638;28;20044;-67
2022/04/16 00:17:57;;;;;;;21.20;16.27;;;8.30;99.90;;;;;;5010039;28;20116;-68
2022/04/16 00:20:27;;;;;;;17.20;15.47;;;8.10;99.90;;;;;;5009561;28;20037;-67
2022/04/16 00:22:53;;;;;;;18.33;15.27;;;7.80;99.90;;;;;;5010760;28;20690;-68
2022/04/16 00:25:19;;;;;;;20.03;16.33;;;8.00;99.90;;;;;;5009760;28;20025;-67
2022/04/16 00:27:45;;;;;;;17.83;15.10;;;7.90;99.90;;;;;;5010355;28;20018;-67
2022/04/16 00:30:10;;;;;;;18.50;15.87;;;7.90;99.90;;;;;;5003753;28;20030;-67
2022/04/16 00:32:36;;;;;;;18.83;14.40;;;7.90;99.90;;;;;;5009703;28;20100;-68
2022/04/16 00:35:02;;;;;;;17.80;14.03;;;7.40;99.90;;;;;;5009748;28;20069;-70
2022/04/16 00:37:28;;;;;;;19.30;14.27;;;7.80;99.90;;;;;;5010229;28;20026;-70
2022/04/16 00:39:54;;;;;;;22.67;16.37;;;;;;;;;;5009745;28;20104;-69
2022/04/16 00:42:20;;;;;;;19.53;14.50;;;;;;;;;;5009947;28;20544;-70
2022/04/16 00:44:46;;;;;;;18.57;14.67;;;;;;;;;;5010248;28;20038;-70
2022/04/16 00:47:12;;;;;;;20.40;16.33;;;7.70;99.90;;;;;;5009670;28;20745;-70
2022/04/16 00:49:38;;;;;;;18.53;16.63;;;7.60;99.90;;;;;;5010048;28;20105;-69
2022/04/16 00:52:04;;;;;;;17.97;14.97;;;7.70;99.90;;;;;;5010092;28;20076;-70
2022/04/16 00:54:30;;;;;;;19.53;15.27;;;7.60;99.90;;;;;;5009668;28;20045;-70
2022/04/16 00:56:56;;;;;;;19.00;16.13;;;7.90;99.90;;;;;;5010348;28;20442;-69
2022/04/16 00:59:22;;;;;;;17.20;14.57;;;7.60;99.90;;;;;;5010270;28;20026;-69
2022/04/16 01:01:47;;;;;;;17.70;15.90;;;7.60;99.90;;;;;;5010117;28;20368;-69
2022/04/16 01:04:13;;;;;;;16.83;14.83;;;;;;;;;;5009291;28;20116;-70
2022/04/16 01:06:40;;;;;;;17.17;15.27;;;7.20;99.90;;;;;;5010132;28;20380;-70
2022/04/16 01:09:06;;;;;;;20.30;16.83;;;7.40;99.90;;;;;;4997188;28;20030;-69
2022/04/16 01:11:32;;;;;;;17.77;15.93;;;7.40;99.90;;;;;;4990583;28;20030;-70
2022/04/16 01:14:01;;;;;;;22.03;15.27;;;7.30;99.90;;;;;;4990474;28;20394;-70
2022/04/16 01:16:30;;;;;;;20.13;17.13;;;7.30;99.90;;;;;;4990137;28;20069;-69
2022/04/16 01:18:57;;;;;;;19.50;17.00;;;7.40;99.90;;;;;;4990651;28;20015;-70
2022/04/16 01:21:23;;;;;;;19.40;15.40;;;7.40;99.90;;;;;;5000916;28;20041;-70
2022/04/16 01:23:48;;;;;;;21.80;17.00;;;7.30;99.90;;;;;;5010058;28;20032;-70
2022/04/16 01:26:14;;;;;;;20.43;16.17;;;7.30;99.90;;;;;;4991395;28;20546;-69
2022/04/16 01:28:40;;;;;;;24.70;17.50;;;7.30;99.90;;;;;;4990405;28;20088;-70
2022/04/16 01:31:06;;;;;;;20.57;16.27;;;7.20;99.90;;;;;;4990049;28;20023;-70
2022/04/16 01:33:32;;;;;;;20.27;16.63;;;7.20;99.90;;;;;;4990439;28;20059;-70
2022/04/16 01:35:58;;;;;;;23.03;17.57;;;7.20;99.90;;;;;;4995881;28;20426;-69
2022/04/16 01:38:27;;;;;;;20.23;16.90;;;7.30;99.90;;;;;;5010184;28;20029;-71
2022/04/16 01:40:59;;;;;;;19.83;17.70;;;7.20;99.90;;;;;;5010227;28;20026;-70
2022/04/16 01:43:25;;;;;;;19.37;16.77;;;7.20;99.90;;;;;;5009965;28;20105;-70
2022/04/16 01:45:51;;;;;;;23.73;17.60;;;;;;;;;;5009455;28;20141;-70
2022/04/16 01:48:17;;;;;;;23.80;19.80;;;7.10;99.90;;;;;;5009599;28;20037;-70
2022/04/16 01:50:43;;;;;;;21.33;18.90;;;7.10;99.90;;;;;;5010024;28;20395;-70
2022/04/16 01:53:10;;;;;;;22.00;17.07;;;7.10;99.90;;;;;;5012867;28;20025;-70
2022/04/16 01:55:36;;;;;;;22.60;17.93;;;7.10;99.90;;;;;;5009172;28;20046;-70
2022/04/16 01:58:03;;;;;;;23.73;17.83;;;7.10;99.90;;;;;;4993909;28;20380;-70
2022/04/16 02:00:29;;;;;;;24.30;19.77;;;7.20;99.90;;;;;;4993491;28;20391;-69
2022/04/16 02:02:57;;;;;;;27.57;20.70;;;;;;;;;;4993966;28;20114;-70
2022/04/16 02:05:24;;;;;;;22.70;19.27;;;;;;;;;;4994061;28;20057;-70
2022/04/16 02:07:50;;;;;;;22.30;18.20;;;;;;;;;;4993886;28;20550;-70
2022/04/16 02:10:16;;;;;;;28.43;20.93;;;6.80;99.90;;;;;;4993738;28;20037;-70
2022/04/16 02:12:43;;;;;;;25.17;22.27;;;6.80;99.90;;;;;;4993650;28;20486;-69
2022/04/16 02:15:09;;;;;;;28.73;22.17;;;6.90;99.90;;;;;;4993088;28;20042;-69
2022/04/16 02:17:36;;;;;;;25.60;19.57;;;6.80;99.90;;;;;;4993551;28;20026;-69
2022/04/16 02:20:06;;;;;;;29.03;20.60;;;6.80;99.90;;;;;;4993550;28;20500;-70
2022/04/16 02:22:47;;;;;;;23.63;20.20;;;6.70;99.90;;;;;;5012681;28;20072;-70
2022/04/16 02:25:16;;;;;;;25.57;19.70;;;6.80;99.90;;;;;;5011844;28;20030;-70
2022/04/16 02:27:42;;;;;;;27.93;20.77;;;6.60;99.90;;;;;;5013122;28;20121;-69
2022/04/16 02:30:13;;;;;;;24.80;18.33;;;6.90;99.90;;;;;;5012454;28;20022;-68
2022/04/16 02:32:41;;;;;;;25.90;21.20;;;6.70;99.90;;;;;;5005363;28;20072;-68
2022/04/16 02:35:07;;;;;;;26.13;20.53;;;6.70;99.90;;;;;;4993281;28;20034;-69
2022/04/16 02:37:33;;;;;;;27.10;21.83;;;6.60;99.90;;;;;;4993266;28;20468;-68
2022/04/16 02:39:58;;;;;;;25.47;20.67;;;6.60;99.90;;;;;;4993064;28;20081;-68
2022/04/16 02:42:24;;;;;;;26.27;21.23;;;6.70;99.90;;;;;;4993251;28;20037;-68
2022/04/16 02:47:34;;;;;;;23.83;18.50;;;;;;;;;;4996603;28;20036;-68
2022/04/16 02:50:00;;;;;;;29.67;22.23;;;6.60;99.90;;;;;;5012084;28;20030;-68
2022/04/16 02:52:26;;;;;;;23.63;18.90;;;;;;;;;;5012272;28;20029;-68
2022/04/16 02:54:55;;;;;;;27.80;21.80;;;6.60;99.90;;;;;;5011349;28;20489;-70
2022/04/16 02:57:20;;;;;;;25.43;18.53;;;6.60;99.90;;;;;;5012662;28;20037;-70
2022/04/16 02:59:49;;;;;;;26.83;21.90;;;;;;;;;;5012161;28;20116;-70
2022/04/16 03:02:15;;;;;;;25.90;21.03;;;6.40;99.90;;;;;;5012365;28;20029;-70
2022/04/16 03:04:41;;;;;;;26.83;21.33;;;;;;;;;;5011293;28;20025;-70
2022/04/16 03:07:06;;;;;;;29.00;20.93;;;6.40;99.90;;;;;;5007819;28;20149;-70
2022/04/16 03:09:32;;;;;;;30.73;21.40;;;6.40;99.90;;;;;;4992570;28;20472;-70
2022/04/16 03:11:58;;;;;;;27.60;21.80;;;6.40;99.90;;;;;;4992488;28;20037;-70
2022/04/16 03:19:54;;;;;;;28.03;21.83;;;6.20;99.90;;;;;;5012388;28;20037;-70
2022/04/16 03:22:20;;;;;;;33.30;24.93;;;;;;;;;;5011693;28;20033;-70
2022/04/16 03:24:45;;;;;;;31.33;22.70;;;6.30;99.90;;;;;;5012089;28;20030;-68
2022/04/16 03:27:11;;;;;;;22.40;17.87;;;;;;;;;;5011413;28;20120;-68
2022/04/16 03:29:37;;;;;;;29.30;23.20;;;6.20;99.90;;;;;;5011892;28;20108;-69
2022/04/16 03:32:04;;;;;;;31.70;23.77;;;6.10;99.90;;;;;;5006373;28;20034;-68
2022/04/16 03:34:29;;;;;;;28.10;22.47;;;6.30;99.90;;;;;;5011699;28;20092;-68
2022/04/16 03:36:55;;;;;;;33.07;24.07;;;6.20;99.90;;;;;;5011894;28;20494;-68
2022/04/16 03:39:21;;;;;;;31.67;24.73;;;;;;;;;;5011678;28;20041;-70
2022/04/16 03:41:48;;;;;;;34.40;24.57;;;6.00;99.90;;;;;;5011292;28;20030;-68
2022/04/16 03:44:13;;;;;;;38.50;26.67;;;6.10;99.90;;;;;;5011714;28;20038;-67
2022/04/16 03:46:39;;;;;;;32.73;24.40;;;6.20;99.90;;;;;;5011445;28;20068;-68
2022/04/16 03:49:04;;;;;;;40.73;27.03;;;6.10;99.90;;;;;;5011527;28;20037;-71
2022/04/16 03:51:30;;;;;;;40.83;29.83;;;;;;;;;;5010183;28;20390;-70
2022/04/16 03:59:59;;;;;;;41.53;29.03;;;;;;;;;;5011478;28;20380;-70
2022/04/16 04:02:10;;;;;;;44.63;31.73;;;6.10;99.90;;;;;;5004015;28;20034;-71
2022/04/16 04:04:35;;;;;;;44.73;31.27;;;;;;;;;;4991906;28;20399;-71
2022/04/16 04:07:01;;;;;;;43.47;29.57;;;6.10;99.90;;;;;;4991632;28;20225;-71
2022/04/16 04:09:27;;;;;;;40.23;29.77;;;;;;;;;;4991560;28;20109;-70
2022/04/16 04:11:52;;;;;;;38.63;28.87;;;6.20;99.90;;;;;;4990192;28;20026;-70
2022/04/16 04:14:18;;;;;;;42.40;29.27;;;6.20;99.90;;;;;;4990960;28;20034;-70
2022/04/16 04:16:43;;;;;;;46.90;30.33;;;6.00;99.90;;;;;;4993535;28;20038;-70
2022/04/16 04:19:09;;;;;;;41.50;28.40;;;6.10;99.90;;;;;;4991542;28;20113;-70
2022/04/16 04:21:34;;;;;;;43.70;31.77;;;6.00;99.90;;;;;;4991356;28;20035;-70
2022/04/16 04:24:00;;;;;;;47.93;35.03;;;6.10;99.90;;;;;;4991207;28;20531;-70
2022/04/16 04:26:25;;;;;;;47.93;34.13;;;6.10;99.90;;;;;;4999069;28;20072;-70
2022/04/16 04:28:51;;;;;;;46.53;33.80;;;;;;;;;;5009328;28;20032;-70
2022/04/16 04:31:17;;;;;;;48.23;33.80;;;;;;;;;;5010842;28;20684;-70
2022/04/16 04:33:43;;;;;;;51.53;34.10;;;;;;;;;;5010341;28;20034;-70
2022/04/16 04:36:09;;;;;;;52.43;36.77;;;6.20;99.90;;;;;;5010583;28;20038;-70
2022/04/16 04:38:34;;;;;;;42.90;33.47;;;6.10;99.90;;;;;;5010635;28;20026;-70
2022/04/16 04:41:00;;;;;;;49.63;35.60;;;6.30;99.90;;;;;;5009938;28;20084;-71
2022/04/16 04:43:26;;;;;;;49.00;35.97;;;6.10;99.90;;;;;;5010496;28;20026;-71
2022/04/16 04:45:51;;;;;;;47.70;33.83;;;6.10;99.90;;;;;;5010668;28;20078;-71
2022/04/16 04:48:17;;;;;;;50.57;37.67;;;6.20;99.90;;;;;;5009230;28;20522;-70
2022/04/16 04:50:43;;;;;;;47.03;33.93;;;;;;;;;;4993515;28;20034;-70
2022/04/16 04:53:09;;;;;;;44.77;34.33;;;;;;;;;;4990802;28;20022;-70
2022/04/16 04:55:35;;;;;;;51.07;36.10;;;;;;;;;;4990373;28;20066;-70
2022/04/16 04:58:00;;;;;;;54.77;36.63;;;6.20;99.90;;;;;;4990549;28;20053;-70
2022/04/16 05:00:26;;;;;;;52.63;35.87;;;5.80;99.90;;;;;;4990908;28;20105;-70
2022/04/16 05:02:51;;;;;;;55.07;37.37;;;6.10;99.90;;;;;;5002535;28;20068;-70
2022/04/16 05:05:17;;;;;;;53.70;37.00;;;6.20;99.90;;;;;;5010369;28;20430;-71
2022/04/16 05:07:43;;;;;;;48.10;35.70;;;6.30;99.90;;;;;;5010126;28;20472;-70
2022/04/16 05:10:09;;;;;;;52.03;36.70;;;6.20;99.90;;;;;;5009588;28;20072;-68
2022/04/16 05:12:34;;;;;;;60.77;39.97;;;6.30;99.90;;;;;;5009775;28;20026;-68
2022/04/16 05:15:00;;;;;;;53.83;36.00;;;6.30;99.90;;;;;;5009805;28;20121;-68
2022/04/16 05:17:26;;;;;;;53.13;36.97;;;6.30;99.90;;;;;;5009400;28;20064;-68
2022/04/16 05:19:52;;;;;;;52.80;36.20;;;;;;;;;;5010183;28;20065;-68
2022/04/16 05:22:18;;;;;;;60.57;41.77;;;6.30;99.90;;;;;;5009963;28;20037;-68
2022/04/16 05:24:45;;;;;;;58.20;39.00;;;6.30;99.90;;;;;;5004999;28;20032;-69
2022/04/16 05:27:10;;;;;;;58.60;38.90;;;6.50;99.90;;;;;;5010760;28;20038;-68
2022/04/16 05:32:21;;;;;;;55.45;39.53;;;6.50;99.90;;;;;;5013846;28;20125;-68
2022/04/16 05:34:47;;;;;;;62.50;43.80;;;;;;;;;;5014128;28;20045;-68
2022/04/16 05:37:12;;;;;;;57.53;41.63;;;6.50;99.90;;;;;;5009339;28;20073;-68
2022/04/16 05:39:38;;;;;;;60.83;40.83;;;6.50;99.90;;;;;;4993702;28;20034;-68
2022/04/16 05:42:04;;;;;;;57.47;39.80;;;6.60;99.90;;;;;;4993035;28;20432;-69
2022/04/16 05:44:30;;;;;;;60.40;40.63;;;;;;;;;;4994042;28;20030;-68
2022/04/16 05:46:56;;;;;;;58.97;41.53;;;;;;;;;;4994078;28;20058;-68
2022/04/16 05:49:22;;;;;;;52.57;37.43;;;;;;;;;;4992887;28;20022;-68
2022/04/16 05:51:48;;;;;;;68.33;45.03;;;6.70;99.90;;;;;;4994458;28;20050;-68
2022/04/16 05:54:14;;;;;;;56.57;41.00;;;6.80;99.90;;;;;;4993504;28;20389;-69
2022/04/16 05:56:40;;;;;;;59.43;41.63;;;;;;;;;;5008809;28;20049;-68
2022/04/16 05:59:06;;;;;;;58.60;38.03;;;;;;;;;;5013507;28;20022;-69
2022/04/16 06:01:31;;;;;;;58.93;41.83;;;7.00;99.90;;;;;;5013578;28;20105;-69
2022/04/16 06:03:57;;;;;;;57.20;40.80;;;7.20;99.90;;;;;;5013460;28;20109;-69
2022/04/16 06:06:22;;;;;;;59.73;43.23;;;7.20;99.90;;;;;;5012310;28;20049;-69
2022/04/16 06:08:48;;;;;;;57.40;39.53;;;7.40;99.90;;;;;;5011661;28;20459;-69
2022/04/16 06:11:17;;;;;;;55.40;38.33;;;;;;;;;;5013252;28;20022;-69
2022/04/16 06:13:43;;;;;;;55.30;39.00;;;;;;;;;;5011964;28;20025;-69
2022/04/16 06:16:09;;;;;;;52.77;37.40;;;7.50;99.90;;;;;;5013206;28;20050;-68
2022/04/16 06:18:35;;;;;;;63.30;42.87;;;7.60;99.90;;;;;;5002330;28;20105;-69
2022/04/16 06:21:00;;;;;;;54.40;39.13;;;7.50;99.90;;;;;;4992009;28;20026;-69
2022/04/16 06:23:26;;;;;;;55.17;40.60;;;7.50;99.90;;;;;;4992329;28;20041;-69
2022/04/16 06:25:52;;;;;;;54.87;39.53;;;;;;;;;;4993688;28;20053;-69
2022/04/16 06:28:17;;;;;;;52.53;39.60;;;7.80;99.90;;;;;;4993430;28;20038;-69
2022/04/16 06:30:43;;;;;;;57.07;41.10;;;7.90;99.90;;;;;;4993486;28;20038;-69
2022/04/16 06:33:09;;;;;;;61.87;41.63;;;;;;;;;;4999390;28;20026;-69
2022/04/16 06:35:34;;;;;;;51.93;38.87;;;7.90;99.90;;;;;;5005081;28;20097;-69
2022/04/16 06:38:00;;;;;;;55.70;40.60;;;7.80;99.90;;;;;;4992939;28;20503;-69
2022/04/16 06:40:25;;;;;;;54.47;39.53;;;8.10;99.90;;;;;;5003756;28;20048;-68
2022/04/16 06:42:54;;;;;;;52.93;38.87;;;8.00;99.90;;;;;;5012509;28;20419;-68
2022/04/16 06:45:19;;;;;;;52.37;39.30;;;;;;;;;;5012573;28;20048;-68
2022/04/16 06:47:45;;;;;;;49.83;36.30;;;8.20;99.90;;;;;;5012316;28;20105;-68
2022/04/16 06:50:11;;;;;;;44.67;37.17;;;;;;;;;;5012190;28;20026;-68
2022/04/16 06:52:37;;;;;;;47.43;34.03;;;8.10;99.90;;;;;;5012183;28;20030;-68
2022/04/16 06:55:03;;;;;;;49.63;34.43;;;8.40;99.90;;;;;;5012349;28;20030;-69
2022/04/16 06:57:29;;;;;;;47.40;36.00;;;8.50;99.90;;;;;;5011488;28;20030;-69
2022/04/16 06:59:54;;;;;;;45.80;33.33;;;8.40;99.90;;;;;;5012254;28;20022;-69
2022/04/16 07:02:20;;;;;;;45.13;34.27;;;8.50;99.90;;;;;;5011646;28;20047;-69
2022/04/16 07:04:45;;;;;;;45.67;34.53;;;8.60;99.90;;;;;;5007431;28;20030;-69
2022/04/16 07:07:11;;;;;;;40.97;31.10;;;8.70;99.90;;;;;;5010915;28;20463;-69
2022/04/16 07:09:41;;;;;;;40.97;31.83;;;8.70;99.90;;;;;;5000562;28;20048;-69
2022/04/16 07:12:09;;;;;;;43.23;29.67;;;8.70;99.90;;;;;;4992455;28;20395;-69
2022/04/16 07:14:36;;;;;;;43.70;32.17;;;9.00;99.90;;;;;;5003400;28;20391;-72
2022/04/16 07:17:02;;;;;;;38.30;31.47;;;8.90;99.90;;;;;;5012218;28;20030;-71
2022/04/16 07:19:31;;;;;;;37.97;28.90;;;9.00;99.90;;;;;;5009764;28;20021;-72
2022/04/16 07:21:58;;;;;;;38.97;28.47;;;9.10;99.90;;;;;;5008102;28;20073;-72
2022/04/16 07:24:27;;;;;;;38.03;28.93;;;9.30;99.90;;;;;;5011904;28;20022;-71
2022/04/16 07:26:56;;;;;;;36.80;28.93;;;9.30;99.90;;;;;;5016278;28;20475;-72
2022/04/16 07:29:23;;;;;;;33.33;27.50;;;9.30;99.90;;;;;;5011869;28;20506;-72
2022/04/16 07:31:49;;;;;;;38.20;28.77;;;9.50;99.90;;;;;;5011753;28;20026;-72
2022/04/16 07:34:15;;;;;;;36.33;27.13;;;;;;;;;;5010875;28;20033;-72
2022/04/16 07:36:42;;;;;;;34.27;26.40;;;9.50;99.90;;;;;;5011612;28;20065;-72
2022/04/16 07:39:07;;;;;;;35.83;27.80;;;9.50;99.90;;;;;;5021780;28;20036;-72
2022/04/16 07:41:35;;;;;;;33.53;28.17;;;9.50;99.90;;;;;;5031434;28;20029;-71
2022/04/16 07:44:03;;;;;;;34.80;25.80;;;9.40;99.90;;;;;;5016153;28;20590;-72
2022/04/16 07:46:33;;;;;;;30.87;25.80;;;9.60;99.90;;;;;;5011101;28;20057;-71
2022/04/16 07:48:58;;;;;;;32.77;27.43;;;9.90;99.90;;;;;;5010557;28;20372;-72
2022/04/16 07:51:25;;;;;;;33.90;26.60;;;9.90;99.90;;;;;;5010245;28;20084;-72
2022/04/16 07:53:52;;;;;;;34.20;26.03;;;10.00;99.90;;;;;;5011831;28;20116;-72
2022/04/16 07:56:17;;;;;;;30.87;25.43;;;10.20;99.90;;;;;;5011386;28;20095;-72
2022/04/16 07:58:43;;;;;;;31.93;24.40;;;10.10;99.90;;;;;;5009980;28;20417;-72
2022/04/16 08:01:08;;;;;;;30.23;24.60;;;10.20;99.90;;;;;;5011260;28;20029;-72
2022/04/16 08:03:34;;;;;;;29.93;24.47;;;10.40;99.90;;;;;;5010603;28;20490;-72
2022/04/16 08:05:59;;;;;;;28.80;25.03;;;10.60;99.90;;;;;;5010582;28;20054;-72
2022/04/16 08:08:25;;;;;;;28.80;22.43;;;10.50;99.90;;;;;;5010336;28;20034;-72
2022/04/16 08:10:53;;;;;;;30.13;23.87;;;10.70;99.90;;;;;;5010926;28;20040;-72
2022/04/16 08:13:19;;;;;;;27.47;21.97;;;10.70;99.90;;;;;;5008063;28;20026;-71
2022/04/16 08:15:46;;;;;;;31.23;24.07;;;13.00;99.90;;;;;;5000584;28;20120;-71
2022/04/16 08:18:12;;;;;;;28.37;23.37;;;10.70;99.90;;;;;;5010506;28;20042;-72
2022/04/16 08:20:38;;;;;;;30.13;23.10;;;10.70;99.90;;;;;;5010935;28;20142;-72
2022/04/16 08:23:06;;;;;;;24.67;21.50;;;11.00;99.90;;;;;;5010912;28;20022;-71
2022/04/16 08:28:01;;;;;;;29.67;22.63;;;10.80;99.90;;;;;;5011015;28;20026;-71
2022/04/16 08:30:27;;;;;;;25.53;21.17;;;11.20;99.90;;;;;;5010602;28;20494;-72
2022/04/16 08:32:53;;;;;;;24.57;20.13;;;11.00;99.90;;;;;;4996512;28;20057;-71
2022/04/16 08:35:19;;;;;;;25.83;21.73;;;11.40;99.90;;;;;;5010580;28;20127;-72
2022/04/16 08:37:46;;;;;;;25.40;22.17;;;11.20;99.90;;;;;;5006542;28;20030;-71
2022/04/16 08:40:13;;;;;;;24.25;20.50;;;11.20;99.90;;;;;;4991191;28;20403;-71
2022/04/16 08:42:40;;;;;;;23.20;19.30;;;11.50;99.90;;;;;;4991086;28;20925;-72
2022/04/16 08:45:07;;;;;;;25.33;21.07;;;12.00;99.90;;;;;;4990697;28;20022;-71
2022/04/16 08:47:34;;;;;;;25.30;21.37;;;11.60;99.90;;;;;;5000961;28;20030;-71
2022/04/16 08:50:00;;;;;;;24.50;21.80;;;11.50;99.90;;;;;;5010538;28;20018;-72
2022/04/16 08:52:31;;;;;;;22.53;17.93;;;11.60;99.90;;;;;;5010747;28;20033;-71
2022/04/16 08:55:00;;;;;;;26.65;19.40;;;11.60;99.90;;;;;;5010344;28;20038;-71
2022/04/16 08:57:26;;;;;;;26.73;20.47;;;11.70;99.90;;;;;;5010436;28;20028;-72
2022/04/16 08:59:53;;;;;;;23.23;20.42;;;11.50;99.90;;;;;;5010597;28;20030;-71
2022/04/16 09:02:23;;;;;;;23.60;18.60;;;11.40;99.90;;;;;;5000750;28;20022;-71
2022/04/16 09:05:00;;;;;;;24.67;19.52;;;11.70;99.90;;;;;;4990395;28;20030;-71
2022/04/16 09:07:25;;;;;;;22.83;18.67;;;11.80;99.90;;;;;;4990601;28;20149;-71
2022/04/16 09:09:51;;;;;;;22.83;19.37;;;11.80;99.90;;;;;;4990464;28;20031;-72
2022/04/16 09:12:20;;;;;;;19.33;16.30;;;11.90;99.90;;;;;;4990301;28;20076;-71
2022/04/16 09:14:46;;;;;;;20.77;17.30;;;11.90;99.90;;;;;;4999983;28;20092;-71
2022/04/16 09:17:18;;;;;;;23.20;17.38;;;12.00;99.90;;;;;;5005606;28;20744;-72
2022/04/16 09:19:54;;;;;;;19.23;17.20;;;12.10;99.90;;;;;;5009483;28;20029;-72
2022/04/16 09:22:35;;;;;;;20.02;16.88;;;12.20;99.90;;;;;;5009715;28;20100;-72
2022/04/16 09:25:02;;;;;;;21.02;16.08;;;12.30;99.90;;;;;;5010021;28;20034;-71
2022/04/16 09:27:43;;;;;;;21.17;17.42;;;12.30;99.90;;;;;;5004954;28;20069;-71
2022/04/16 09:30:09;;;;;;;20.77;16.50;;;12.50;99.90;;;;;;4999216;28;20049;-72
2022/04/16 09:32:43;;;;;;;18.25;16.00;;;12.60;99.90;;;;;;5009055;28;20083;-71
2022/04/16 09:35:19;;;;;;;17.20;14.50;;;12.50;99.90;;;;;;5008713;28;20033;-71
2022/04/16 09:37:53;;;;;;;19.25;14.90;;;12.50;99.90;;;;;;5008880;28;20062;-71
2022/04/16 09:40:18;;;;;;;15.50;13.88;;;12.60;99.90;;;;;;5004171;28;20030;-71
2022/04/16 09:42:52;;;;;;;22.83;17.83;;;12.70;99.90;;;;;;5005305;28;20041;-71
2022/04/16 09:45:17;;;;;;;20.35;16.65;;;12.80;99.90;;;;;;5009098;28;20503;-71
2022/04/16 09:47:52;;;;;;;17.55;15.70;;;12.90;99.90;;;;;;5009616;28;20126;-72
2022/04/16 09:50:22;;;;;;;19.13;14.10;;;12.90;99.90;;;;;;5009942;28;20034;-72
2022/04/16 09:52:52;;;;;;;18.35;15.20;;;13.00;99.90;;;;;;5009526;28;20045;-72
2022/04/16 09:55:21;;;;;;;16.63;13.55;;;12.90;99.90;;;;;;5008239;28;20038;-71
2022/04/16 09:57:50;;;;;;;16.50;14.85;;;13.60;99.90;;;;;;5008971;28;20030;-71
2022/04/16 10:00:17;;;;;;;15.45;12.20;;;13.10;99.90;;;;;;4998509;28;20731;-71
2022/04/16 10:02:43;;;;;;;17.23;13.93;;;13.20;99.90;;;;;;4989788;28;20022;-72
2022/04/16 10:05:10;;;;;;;16.40;14.50;;;13.30;99.90;;;;;;4990078;28;20037;-71
2022/04/16 10:07:37;;;;;;;18.33;13.77;;;13.40;99.90;;;;;;4990342;28;20066;-71
2022/04/16 10:10:06;;;;;;;13.35;11.95;;;13.40;99.30;;;;;;4989848;28;20039;-71
2022/04/16 10:15:22;;;;;;;14.55;11.50;;;13.40;98.90;;;;;;4992984;28;20049;-71
2022/04/16 10:17:50;;;;;;;14.20;11.48;;;13.60;98.90;;;;;;4993289;28;20041;-71
2022/04/16 10:20:20;;;;;;;13.77;11.60;;;13.70;99.00;;;;;;4993578;28;20116;-72
2022/04/16 10:22:59;;;;;;;13.32;11.90;;;13.80;97.50;;;;;;5012635;28;20033;-72
2022/04/16 10:25:31;;;;;;;16.88;12.73;;;13.80;97.50;;;;;;5006300;28;20045;-72
2022/04/16 10:28:05;;;;;;;13.73;12.25;;;13.50;97.50;;;;;;5007990;28;20379;-72
2022/04/16 10:30:42;;;;;;;12.70;10.93;;;13.60;97.80;;;;;;5011574;28;20128;-72
2022/04/16 10:33:27;;;;;;;11.80;10.40;;;13.80;97.50;;;;;;5010598;28;20495;-72
2022/04/16 10:36:05;;;;;;;11.07;8.20;;;14.10;96.70;;;;;;4997260;28;20042;-72
2022/04/16 10:38:39;;;;;;;12.05;9.43;;;14.10;95.50;;;;;;5005186;28;20034;-72
2022/04/16 10:41:18;;;;;;;12.82;9.80;;;13.90;95.40;;;;;;5010512;28;20022;-72
2022/04/16 10:43:57;;;;;;;14.20;9.85;;;14.00;94.10;;;;;;5011433;28;20527;-72
2022/04/16 10:46:23;;;;;;;10.15;8.32;;;13.90;95.70;;;;;;5011732;28;20041;-72
2022/04/16 10:48:49;;;;;;;7.70;6.82;;;13.90;95.00;;;;;;5012753;28;20402;-72
2022/04/16 10:51:21;;;;;;;9.73;8.48;;;14.00;94.90;;;;;;5012539;28;20356;-72
2022/04/16 10:53:46;;;;;;;8.32;7.15;;;14.00;94.80;;;;;;5012552;28;20044;-72
2022/04/16 10:56:14;;;;;;;9.07;7.03;;;13.90;94.50;;;;;;5012147;28;20033;-72
2022/04/16 10:58:45;;;;;;;6.70;5.78;;;14.00;94.50;;;;;;5002171;28;20068;-72
2022/04/16 11:01:13;;;;;;;10.02;7.18;;;14.20;94.90;;;;;;4992712;28;20022;-72
2022/04/16 11:03:42;;;;;;;8.75;7.63;;;14.40;94.10;;;;;;4992898;28;20054;-72
2022/04/16 11:06:08;;;;;;;7.95;6.50;;;14.40;93.80;;;;;;5009080;28;20030;-72
2022/04/16 11:08:35;;;;;;;6.05;4.90;;;14.40;93.20;;;;;;5011114;28;20026;-72
2022/04/16 11:11:02;;;;;;;8.70;6.75;;;14.30;93.50;;;;;;5007832;28;20035;-72
2022/04/16 11:13:30;;;;;;;6.95;6.22;;;14.20;92.60;;;;;;5005046;28;20027;-72
2022/04/16 11:15:57;;;;;;;7.38;5.57;;;14.10;92.80;;;;;;5008249;28;20099;-72
2022/04/16 11:18:23;;;;;;;7.32;6.30;;;14.10;92.70;;;;;;5008373;28;20052;-71
2022/04/16 11:20:58;;;;;;;7.70;5.80;;;14.10;92.90;;;;;;5008240;28;20034;-71
2022/04/16 11:23:25;;;;;;;8.68;6.63;;;14.00;93.10;;;;;;5008254;28;20053;-70
2022/04/16 11:34:20;;;;;;;6.95;6.25;;;14.20;92.00;;;;;;5009227;28;20437;-72
2022/04/16 11:36:52;;;;;;;7.00;6.35;;;14.00;92.80;;;;;;5011101;28;20045;-72
2022/04/16 11:39:18;;;;;;;8.18;6.10;;;14.10;92.00;;;;;;5011312;28;20034;-72
2022/04/16 11:41:51;;;;;;;5.93;4.85;;;14.00;91.60;;;;;;5011194;28;20029;-72
2022/04/16 11:44:27;;;;;;;7.03;5.63;;;14.00;91.50;;;;;;5011407;28;20033;-72
2022/04/16 11:46:53;;;;;;;5.28;4.35;;;13.90;91.10;;;;;;4993004;28;20150;-72
2022/04/16 11:49:18;;;;;;;7.22;4.95;;;14.00;91.40;;;;;;4990640;28;20045;-72
2022/04/16 11:51:44;;;;;;;6.05;5.28;;;14.00;90.00;;;;;;5007690;28;20376;-72
2022/04/16 11:54:09;;;;;;;6.43;5.43;;;14.00;90.00;;;;;;5010973;28;20026;-73
2022/04/16 11:56:35;;;;;;;5.65;5.05;;;14.10;90.50;;;;;;5010230;28;20034;-73
2022/04/16 11:59:01;;;;;;;5.20;4.32;;;14.10;90.30;;;;;;5010598;28;20461;-72
2022/04/16 12:01:26;;;;;;;5.85;4.65;;;14.10;90.60;;;;;;5007795;28;20026;-71
2022/04/16 12:03:52;;;;;;;4.80;4.30;;;14.10;90.60;;;;;;5007988;28;20033;-71
2022/04/16 12:06:18;;;;;;;6.38;5.30;;;14.20;90.40;;;;;;5010831;28;20380;-71
2022/04/16 12:08:48;;;;;;;7.43;5.28;;;14.20;89.60;;;;;;5011304;28;20110;-71
2022/04/16 12:11:17;;;;;;;6.70;5.55;;;14.30;86.80;;;;;;5010756;28;20052;-71
2022/04/16 12:13:43;;;;;;;6.22;5.07;;;14.20;86.60;;;;;;5010881;28;20172;-71
2022/04/16 12:16:11;;;;;;;6.25;4.80;;;14.20;86.60;;;;;;5009326;28;20129;-71
2022/04/16 12:18:42;;;;;;;5.82;4.30;;;14.30;86.70;;;;;;5010801;28;20022;-71
2022/04/16 12:21:10;;;;;;;6.30;4.72;;;14.30;86.30;;;;;;5010989;28;20061;-71
2022/04/16 12:23:39;;;;;;;4.03;3.55;;;14.30;86.20;;;;;;5010383;28;20022;-71
2022/04/16 12:26:09;;;;;;;5.25;4.07;;;14.40;85.90;;;;;;5010762;28;20033;-71
2022/04/16 12:28:47;;;;;;;5.47;4.47;;;14.40;86.80;;;;;;5009656;28;20029;-71
2022/04/16 12:31:12;;;;;;;7.53;3.80;;;14.50;83.30;;;;;;4999592;28;20045;-72
2022/04/16 12:33:38;;;;;;;4.90;3.55;;;14.50;81.70;;;;;;4991033;28;20022;-70
2022/04/16 12:36:06;;;;;;;4.88;3.33;;;14.50;81.40;;;;;;4990100;28;20515;-71
2022/04/16 12:38:31;;;;;;;5.50;3.45;;;14.50;80.20;;;;;;4990511;28;20058;-70
2022/04/16 12:41:08;;;;;;;6.22;3.65;;;14.50;78.00;;;;;;4989792;28;20066;-72
2022/04/16 12:43:34;;;;;;;4.35;3.72;;;14.40;78.50;;;;;;4990879;28;20053;-72
2022/04/16 12:46:00;;;;;;;5.20;3.45;;;;;;;;;;4999972;28;20129;-72
2022/04/16 12:48:26;;;;;;;4.25;3.70;;;14.60;75.90;;;;;;5009052;28;20112;-71
2022/04/16 12:50:51;;;;;;;8.80;3.92;;;14.60;77.70;;;;;;5010547;28;20018;-72
2022/04/16 12:53:17;;;;;;;5.35;3.67;;;14.70;78.00;;;;;;5008830;28;20044;-72
2022/04/16 12:55:42;;;;;;;5.55;3.97;;;14.80;78.70;;;;;;5010393;28;20537;-71
2022/04/16 12:58:08;;;;;;;4.18;3.78;;;14.70;78.70;;;;;;5010030;28;20041;-72
2022/04/16 13:00:34;;;;;;;4.07;3.38;;;14.80;78.30;;;;;;5009258;28;20382;-72
2022/04/16 13:03:00;;;;;;;3.45;2.92;;;14.90;78.50;;;;;;5003196;28;20085;-71
2022/04/16 13:05:27;;;;;;;5.28;3.40;;;15.10;77.70;;;;;;4996883;28;20448;-71
2022/04/16 13:07:52;;;;;;;4.32;2.63;;;15.10;76.40;;;;;;4993578;28;20026;-71
2022/04/16 13:10:19;;;;;;;7.53;3.97;;;15.10;74.90;;;;;;5009603;28;20657;-71
2022/04/16 13:12:44;;;;;;;7.43;4.90;;;15.00;72.90;;;;;;5005948;28;20022;-72
2022/04/16 13:15:11;;;;;;;6.55;3.63;;;15.00;72.40;;;;;;4997630;28;20034;-71
2022/04/16 13:17:38;;;;;;;3.50;2.78;;;15.10;72.40;;;;;;5009814;28;20026;-72